sensor_id;sensor_type;location;lat;lon;timestamp;pressure;altitude;pressure_sealevel;temperature;humidity
77019;BME280;66044;53.142;17.962;2023-08-21T00:00:28;101604.86;;;21.68;70.28
77019;BME280;66044;53.142;17.962;2023-08-21T00:03:14;101596.86;;;21.65;70.38
77019;BME280;66044;53.142;17.962;2023-08-21T00:05:41;101594.81;;;21.62;70.32
77019;BME280;66044;53.142;17.962;2023-08-21T00:08:07;101598.06;;;21.59;70.36
77019;BME280;66044;53.142;17.962;2023-08-21T00:10:37;101596.40;;;21.56;70.32
77019;BME280;66044;53.142;17.962;2023-08-21T00:13:05;101594.18;;;21.52;70.34
77019;BME280;66044;53.142;17.962;2023-08-21T00:15:31;101591.27;;;21.49;70.37
77019;BME280;66044;53.142;17.962;2023-08-21T00:17:58;101590.70;;;21.47;70.36
77019;BME280;66044;53.142;17.962;2023-08-21T00:20:26;101584.64;;;21.44;70.48
77019;BME280;66044;53.142;17.962;2023-08-21T00:22:53;101587.45;;;21.41;70.44
77019;BME280;66044;53.142;17.962;2023-08-21T00:25:21;101590.39;;;21.39;70.46
77019;BME280;66044;53.142;17.962;2023-08-21T00:27:48;101589.02;;;21.36;70.55
77019;BME280;66044;53.142;17.962;2023-08-21T00:30:14;101587.20;;;21.32;70.49
77019;BME280;66044;53.142;17.962;2023-08-21T00:35:18;101587.52;;;21.24;70.53
77019;BME280;66044;53.142;17.962;2023-08-21T00:37:44;101584.67;;;21.21;70.59
77019;BME280;66044;53.142;17.962;2023-08-21T00:40:11;101584.89;;;21.18;70.66
77019;BME280;66044;53.142;17.962;2023-08-21T00:42:38;101588.17;;;21.15;70.73
77019;BME280;66044;53.142;17.962;2023-08-21T00:45:05;101590.64;;;21.11;70.83
77019;BME280;66044;53.142;17.962;2023-08-21T00:47:35;101589.56;;;21.06;70.88
77019;BME280;66044;53.142;17.962;2023-08-21T00:50:02;101593.17;;;21.01;70.96
77019;BME280;66044;53.142;17.962;2023-08-21T00:52:30;101598.67;;;20.96;71.13
77019;BME280;66044;53.142;17.962;2023-08-21T00:54:57;101599.77;;;20.91;71.15
77019;BME280;66044;53.142;17.962;2023-08-21T00:57:23;101594.27;;;20.87;71.26
77019;BME280;66044;53.142;17.962;2023-08-21T00:59:50;101592.59;;;20.84;71.26
77019;BME280;66044;53.142;17.962;2023-08-21T01:02:17;101595.45;;;20.81;71.28
77019;BME280;66044;53.142;17.962;2023-08-21T01:04:45;101597.84;;;20.79;71.29
77019;BME280;66044;53.142;17.962;2023-08-21T01:07:13;101596.26;;;20.77;71.42
77019;BME280;66044;53.142;17.962;2023-08-21T01:09:49;101595.54;;;20.75;71.46
77019;BME280;66044;53.142;17.962;2023-08-21T01:12:33;101601.78;;;20.74;71.36
77019;BME280;66044;53.142;17.962;2023-08-21T01:15:06;101601.35;;;20.72;71.42
77019;BME280;66044;53.142;17.962;2023-08-21T01:17:42;101604.04;;;20.69;71.44
77019;BME280;66044;53.142;17.962;2023-08-21T01:20:10;101604.41;;;20.66;71.55
77019;BME280;66044;53.142;17.962;2023-08-21T01:22:40;101606.45;;;20.62;71.65
77019;BME280;66044;53.142;17.962;2023-08-21T01:25:07;101602.30;;;20.55;71.85
77019;BME280;66044;53.142;17.962;2023-08-21T01:27:36;101601.70;;;20.50;71.87
77019;BME280;66044;53.142;17.962;2023-08-21T01:30:04;101598.91;;;20.46;71.88
77019;BME280;66044;53.142;17.962;2023-08-21T01:33:05;101594.89;;;20.42;71.98
77019;BME280;66044;53.142;17.962;2023-08-21T01:35:33;101592.09;;;20.37;72.04
77019;BME280;66044;53.142;17.962;2023-08-21T01:38:03;101593.39;;;20.34;72.12
77019;BME280;66044;53.142;17.962;2023-08-21T01:40:30;101595.17;;;20.31;71.99
77019;BME280;66044;53.142;17.962;2023-08-21T01:42:56;101592.89;;;20.29;71.91
77019;BME280;66044;53.142;17.962;2023-08-21T01:45:23;101591.82;;;20.26;71.85
77019;BME280;66044;53.142;17.962;2023-08-21T01:47:50;101593.64;;;20.22;71.81
77019;BME280;66044;53.142;17.962;2023-08-21T01:50:16;101595.63;;;20.18;71.81
77019;BME280;66044;53.142;17.962;2023-08-21T01:52:43;101601.02;;;20.14;71.94
77019;BME280;66044;53.142;17.962;2023-08-21T01:55:09;101603.21;;;20.10;72.11
77019;BME280;66044;53.142;17.962;2023-08-21T01:57:36;101601.67;;;20.05;72.03
77019;BME280;66044;53.142;17.962;2023-08-21T02:00:03;101604.89;;;20.02;72.09
77019;BME280;66044;53.142;17.962;2023-08-21T02:02:31;101612.94;;;19.99;72.04
77019;BME280;66044;53.142;17.962;2023-08-21T02:04:57;101609.26;;;19.93;71.97
77019;BME280;66044;53.142;17.962;2023-08-21T02:07:24;101609.08;;;19.90;71.89
77019;BME280;66044;53.142;17.962;2023-08-21T02:09:50;101604.98;;;19.88;71.63
77019;BME280;66044;53.142;17.962;2023-08-21T02:12:16;101602.75;;;19.85;71.52
77019;BME280;66044;53.142;17.962;2023-08-21T02:14:43;101603.33;;;19.82;71.61
77019;BME280;66044;53.142;17.962;2023-08-21T02:17:09;101608.98;;;19.80;71.49
77019;BME280;66044;53.142;17.962;2023-08-21T02:19:35;101611.49;;;19.76;71.45
77019;BME280;66044;53.142;17.962;2023-08-21T02:22:02;101613.98;;;19.71;71.51
77019;BME280;66044;53.142;17.962;2023-08-21T02:24:28;101612.64;;;19.65;71.68
77019;BME280;66044;53.142;17.962;2023-08-21T02:26:55;101612.52;;;19.62;71.62
77019;BME280;66044;53.142;17.962;2023-08-21T02:29:21;101613.93;;;19.59;71.79
77019;BME280;66044;53.142;17.962;2023-08-21T02:31:48;101617.43;;;19.54;71.88
77019;BME280;66044;53.142;17.962;2023-08-21T02:34:14;101614.54;;;19.49;71.95
77019;BME280;66044;53.142;17.962;2023-08-21T02:36:40;101617.38;;;19.44;72.10
77019;BME280;66044;53.142;17.962;2023-08-21T02:39:07;101613.85;;;19.39;72.06
77019;BME280;66044;53.142;17.962;2023-08-21T02:41:33;101613.10;;;19.35;72.08
77019;BME280;66044;53.142;17.962;2023-08-21T02:44:00;101607.79;;;19.30;72.13
77019;BME280;66044;53.142;17.962;2023-08-21T02:46:26;101613.88;;;19.27;72.17
77019;BME280;66044;53.142;17.962;2023-08-21T02:48:52;101613.26;;;19.23;72.17
77019;BME280;66044;53.142;17.962;2023-08-21T02:51:19;101606.32;;;19.18;72.12
77019;BME280;66044;53.142;17.962;2023-08-21T02:53:45;101602.74;;;19.14;72.10
77019;BME280;66044;53.142;17.962;2023-08-21T02:56:12;101604.09;;;19.12;71.97
77019;BME280;66044;53.142;17.962;2023-08-21T02:58:38;101604.42;;;19.09;71.96
77019;BME280;66044;53.142;17.962;2023-08-21T03:01:04;101609.26;;;19.05;71.86
77019;BME280;66044;53.142;17.962;2023-08-21T03:03:31;101608.73;;;19.01;71.87
77019;BME280;66044;53.142;17.962;2023-08-21T03:06:00;101608.08;;;18.97;71.79
77019;BME280;66044;53.142;17.962;2023-08-21T03:08:26;101604.59;;;18.92;71.73
77019;BME280;66044;53.142;17.962;2023-08-21T03:10:53;101599.38;;;18.89;71.76
77019;BME280;66044;53.142;17.962;2023-08-21T03:13:19;101597.77;;;18.85;71.68
77019;BME280;66044;53.142;17.962;2023-08-21T03:15:46;101600.24;;;18.81;71.58
77019;BME280;66044;53.142;17.962;2023-08-21T03:18:12;101610.44;;;18.78;71.65
77019;BME280;66044;53.142;17.962;2023-08-21T03:20:44;101616.52;;;18.75;71.70
77019;BME280;66044;53.142;17.962;2023-08-21T03:23:11;101620.95;;;18.71;71.66
77019;BME280;66044;53.142;17.962;2023-08-21T03:25:38;101626.06;;;18.67;71.70
77019;BME280;66044;53.142;17.962;2023-08-21T03:28:04;101629.57;;;18.63;71.66
77019;BME280;66044;53.142;17.962;2023-08-21T03:30:31;101637.98;;;18.60;71.62
77019;BME280;66044;53.142;17.962;2023-08-21T03:32:57;101635.25;;;18.56;71.62
77019;BME280;66044;53.142;17.962;2023-08-21T03:35:24;101630.20;;;18.53;71.62
77019;BME280;66044;53.142;17.962;2023-08-21T03:37:50;101629.48;;;18.50;71.56
77019;BME280;66044;53.142;17.962;2023-08-21T03:40:16;101631.23;;;18.48;71.56
77019;BME280;66044;53.142;17.962;2023-08-21T03:42:43;101630.50;;;18.46;71.56
77019;BME280;66044;53.142;17.962;2023-08-21T03:45:09;101625.02;;;18.45;71.58
77019;BME280;66044;53.142;17.962;2023-08-21T03:47:36;101620.23;;;18.43;71.54
77019;BME280;66044;53.142;17.962;2023-08-21T03:50:02;101627.77;;;18.43;71.34
77019;BME280;66044;53.142;17.962;2023-08-21T03:52:29;101625.27;;;18.42;71.40
77019;BME280;66044;53.142;17.962;2023-08-21T03:54:55;101620.99;;;18.42;71.33
77019;BME280;66044;53.142;17.962;2023-08-21T03:57:22;101614.94;;;18.42;71.32
77019;BME280;66044;53.142;17.962;2023-08-21T03:59:48;101615.10;;;18.43;71.29
77019;BME280;66044;53.142;17.962;2023-08-21T04:02:15;101617.77;;;18.44;71.30
77019;BME280;66044;53.142;17.962;2023-08-21T04:04:41;101625.34;;;18.45;71.26
77019;BME280;66044;53.142;17.962;2023-08-21T04:07:08;101623.13;;;18.47;71.23
77019;BME280;66044;53.142;17.962;2023-08-21T04:09:34;101627.39;;;18.50;71.17
77019;BME280;66044;53.142;17.962;2023-08-21T04:12:00;101625.67;;;18.53;71.16
77019;BME280;66044;53.142;17.962;2023-08-21T04:14:27;101627.93;;;18.56;71.11
77019;BME280;66044;53.142;17.962;2023-08-21T04:16:53;101627.98;;;18.58;71.00
77019;BME280;66044;53.142;17.962;2023-08-21T04:19:20;101629.67;;;18.61;70.93
77019;BME280;66044;53.142;17.962;2023-08-21T04:21:46;101632.55;;;18.64;70.89
77019;BME280;66044;53.142;17.962;2023-08-21T04:24:13;101630.77;;;18.68;70.84
77019;BME280;66044;53.142;17.962;2023-08-21T04:26:39;101632.67;;;18.74;70.74
77019;BME280;66044;53.142;17.962;2023-08-21T04:29:05;101633.52;;;18.81;70.75
77019;BME280;66044;53.142;17.962;2023-08-21T04:31:32;101635.23;;;18.88;70.40
77019;BME280;66044;53.142;17.962;2023-08-21T04:33:58;101635.78;;;18.96;70.25
77019;BME280;66044;53.142;17.962;2023-08-21T04:36:25;101630.38;;;19.06;70.15
77019;BME280;66044;53.142;17.962;2023-08-21T04:38:51;101632.52;;;19.16;69.87
77019;BME280;66044;53.142;17.962;2023-08-21T04:41:17;101635.13;;;19.27;69.71
77019;BME280;66044;53.142;17.962;2023-08-21T04:43:44;101639.23;;;19.39;69.36
77019;BME280;66044;53.142;17.962;2023-08-21T04:46:10;101638.69;;;19.50;69.20
77019;BME280;66044;53.142;17.962;2023-08-21T04:48:37;101639.16;;;19.63;68.79
77019;BME280;66044;53.142;17.962;2023-08-21T04:51:03;101638.30;;;19.77;68.64
77019;BME280;66044;53.142;17.962;2023-08-21T04:53:30;101642.69;;;19.93;68.22
77019;BME280;66044;53.142;17.962;2023-08-21T04:55:58;101637.14;;;20.11;67.83
77019;BME280;66044;53.142;17.962;2023-08-21T04:58:25;101642.58;;;20.29;67.40
77019;BME280;66044;53.142;17.962;2023-08-21T05:00:51;101640.95;;;20.51;66.83
77019;BME280;66044;53.142;17.962;2023-08-21T05:03:18;101647.30;;;21.20;65.79
77019;BME280;66044;53.142;17.962;2023-08-21T05:05:54;101658.16;;;23.46;62.36
77019;BME280;66044;53.142;17.962;2023-08-21T05:08:23;101658.70;;;25.91;58.60
77019;BME280;66044;53.142;17.962;2023-08-21T05:11:00;101671.66;;;28.03;55.22
77019;BME280;66044;53.142;17.962;2023-08-21T05:13:27;101674.86;;;30.03;51.06
77019;BME280;66044;53.142;17.962;2023-08-21T05:15:55;101678.67;;;31.71;47.88
77019;BME280;66044;53.142;17.962;2023-08-21T05:18:23;101684.80;;;33.28;44.68
77019;BME280;66044;53.142;17.962;2023-08-21T05:20:51;101687.68;;;34.66;41.50
77019;BME280;66044;53.142;17.962;2023-08-21T05:23:17;101689.60;;;35.86;39.24
77019;BME280;66044;53.142;17.962;2023-08-21T05:25:44;101692.73;;;37.00;37.17
77019;BME280;66044;53.142;17.962;2023-08-21T05:28:11;101695.91;;;38.07;35.21
77019;BME280;66044;53.142;17.962;2023-08-21T05:30:38;101698.45;;;39.00;33.42
77019;BME280;66044;53.142;17.962;2023-08-21T05:33:04;101699.48;;;39.78;31.76
77019;BME280;66044;53.142;17.962;2023-08-21T05:35:35;101705.09;;;40.45;30.24
77019;BME280;66044;53.142;17.962;2023-08-21T05:38:03;101706.48;;;41.01;28.94
77019;BME280;66044;53.142;17.962;2023-08-21T05:40:30;101716.13;;;41.61;28.17
77019;BME280;66044;53.142;17.962;2023-08-21T05:42:57;101713.14;;;42.25;27.50
77019;BME280;66044;53.142;17.962;2023-08-21T05:45:24;101717.44;;;43.00;26.69
77019;BME280;66044;53.142;17.962;2023-08-21T05:47:50;101714.91;;;43.78;25.57
77019;BME280;66044;53.142;17.962;2023-08-21T05:50:17;101715.84;;;44.51;24.77
77019;BME280;66044;53.142;17.962;2023-08-21T05:52:43;101715.89;;;45.13;23.72
77019;BME280;66044;53.142;17.962;2023-08-21T05:55:10;101725.91;;;45.72;22.95
77019;BME280;66044;53.142;17.962;2023-08-21T05:57:37;101726.81;;;46.32;22.24
77019;BME280;66044;53.142;17.962;2023-08-21T06:00:04;101723.19;;;46.82;21.37
77019;BME280;66044;53.142;17.962;2023-08-21T06:02:34;101722.86;;;47.19;20.55
77019;BME280;66044;53.142;17.962;2023-08-21T06:05:00;101725.36;;;47.68;20.04
77019;BME280;66044;53.142;17.962;2023-08-21T06:07:27;101730.09;;;48.19;19.70
77019;BME280;66044;53.142;17.962;2023-08-21T06:09:53;101730.40;;;48.64;18.99
77019;BME280;66044;53.142;17.962;2023-08-21T06:12:20;101727.85;;;49.15;18.48
77019;BME280;66044;53.142;17.962;2023-08-21T06:14:46;101727.34;;;49.59;17.77
77019;BME280;66044;53.142;17.962;2023-08-21T06:17:13;101726.83;;;49.99;17.32
77019;BME280;66044;53.142;17.962;2023-08-21T06:19:39;101733.18;;;50.47;17.04
77019;BME280;66044;53.142;17.962;2023-08-21T06:22:07;101731.14;;;50.91;16.38
77019;BME280;66044;53.142;17.962;2023-08-21T06:24:34;101733.04;;;51.28;15.92
77019;BME280;66044;53.142;17.962;2023-08-21T06:27:00;101733.85;;;51.62;15.76
77019;BME280;66044;53.142;17.962;2023-08-21T06:29:26;101730.99;;;51.95;15.14
77019;BME280;66044;53.142;17.962;2023-08-21T06:31:53;101733.86;;;52.22;14.96
77019;BME280;66044;53.142;17.962;2023-08-21T06:34:19;101729.52;;;52.50;14.83
77019;BME280;66044;53.142;17.962;2023-08-21T06:36:46;101732.94;;;52.91;14.62
77019;BME280;66044;53.142;17.962;2023-08-21T06:39:12;101734.80;;;53.28;13.90
77019;BME280;66044;53.142;17.962;2023-08-21T06:41:39;101733.21;;;53.65;13.86
77019;BME280;66044;53.142;17.962;2023-08-21T06:44:05;101727.67;;;53.83;13.46
77019;BME280;66044;53.142;17.962;2023-08-21T06:46:32;101728.80;;;53.91;13.25
77019;BME280;66044;53.142;17.962;2023-08-21T06:48:58;101724.15;;;54.11;13.08
77019;BME280;66044;53.142;17.962;2023-08-21T06:51:24;101729.80;;;53.83;12.87
77019;BME280;66044;53.142;17.962;2023-08-21T06:53:51;101726.64;;;53.75;13.09
77019;BME280;66044;53.142;17.962;2023-08-21T06:56:18;101728.30;;;54.02;12.80
77019;BME280;66044;53.142;17.962;2023-08-21T06:58:44;101721.66;;;54.32;12.55
77019;BME280;66044;53.142;17.962;2023-08-21T07:01:11;101720.02;;;54.66;12.34
77019;BME280;66044;53.142;17.962;2023-08-21T07:03:37;101711.60;;;55.01;12.07
77019;BME280;66044;53.142;17.962;2023-08-21T07:06:04;101707.80;;;55.22;11.74
77019;BME280;66044;53.142;17.962;2023-08-21T07:08:30;101706.98;;;55.34;11.58
77019;BME280;66044;53.142;17.962;2023-08-21T07:10:57;101705.02;;;55.19;11.67
77019;BME280;66044;53.142;17.962;2023-08-21T07:13:23;101705.64;;;55.26;11.52
77019;BME280;66044;53.142;17.962;2023-08-21T07:15:52;101710.39;;;55.61;11.43
77019;BME280;66044;53.142;17.962;2023-08-21T07:18:21;101716.27;;;55.97;11.42
77019;BME280;66044;53.142;17.962;2023-08-21T07:20:47;101718.98;;;56.38;11.01
77019;BME280;66044;53.142;17.962;2023-08-21T07:23:14;101717.58;;;56.67;10.91
77019;BME280;66044;53.142;17.962;2023-08-21T07:25:40;101719.38;;;56.83;11.09
77019;BME280;66044;53.142;17.962;2023-08-21T07:28:07;101719.39;;;57.00;10.74
77019;BME280;66044;53.142;17.962;2023-08-21T07:30:37;101712.48;;;57.08;10.31
77019;BME280;66044;53.142;17.962;2023-08-21T07:33:05;101712.20;;;57.11;10.05
77019;BME280;66044;53.142;17.962;2023-08-21T07:35:32;101717.77;;;57.07;10.08
77019;BME280;66044;53.142;17.962;2023-08-21T07:37:59;101712.71;;;56.80;9.97
77019;BME280;66044;53.142;17.962;2023-08-21T07:40:25;101710.95;;;56.58;9.93
77019;BME280;66044;53.142;17.962;2023-08-21T07:42:52;101710.57;;;56.47;10.20
77019;BME280;66044;53.142;17.962;2023-08-21T07:45:18;101709.64;;;56.50;10.25
77019;BME280;66044;53.142;17.962;2023-08-21T07:47:45;101707.55;;;56.66;10.49
77019;BME280;66044;53.142;17.962;2023-08-21T07:50:11;101711.90;;;56.95;10.52
77019;BME280;66044;53.142;17.962;2023-08-21T07:52:40;101709.91;;;57.21;10.10
77019;BME280;66044;53.142;17.962;2023-08-21T07:55:07;101705.27;;;57.28;9.71
77019;BME280;66044;53.142;17.962;2023-08-21T07:57:33;101704.12;;;57.38;9.66
77019;BME280;66044;53.142;17.962;2023-08-21T08:00:00;101701.69;;;57.46;9.77
77019;BME280;66044;53.142;17.962;2023-08-21T08:02:26;101700.98;;;56.84;9.73
77019;BME280;66044;53.142;17.962;2023-08-21T08:04:53;101697.92;;;56.53;9.92
77019;BME280;66044;53.142;17.962;2023-08-21T08:07:19;101698.61;;;56.36;9.95
77019;BME280;66044;53.142;17.962;2023-08-21T08:09:46;101692.71;;;55.76;10.20
77019;BME280;66044;53.142;17.962;2023-08-21T08:12:13;101690.59;;;55.39;10.63
77019;BME280;66044;53.142;17.962;2023-08-21T08:14:39;101685.86;;;54.88;10.56
77019;BME280;66044;53.142;17.962;2023-08-21T08:17:06;101678.36;;;53.86;11.02
77019;BME280;66044;53.142;17.962;2023-08-21T08:19:32;101678.19;;;52.30;11.79
77019;BME280;66044;53.142;17.962;2023-08-21T08:21:58;101666.23;;;50.43;12.86
77019;BME280;66044;53.142;17.962;2023-08-21T08:24:25;101662.53;;;48.64;13.95
77019;BME280;66044;53.142;17.962;2023-08-21T08:26:51;101657.88;;;46.96;14.87
77019;BME280;66044;53.142;17.962;2023-08-21T08:29:18;101650.89;;;45.26;16.27
77019;BME280;66044;53.142;17.962;2023-08-21T08:31:44;101647.31;;;43.80;17.33
77019;BME280;66044;53.142;17.962;2023-08-21T08:34:10;101651.25;;;42.64;18.02
77019;BME280;66044;53.142;17.962;2023-08-21T08:36:37;101643.14;;;41.61;19.03
77019;BME280;66044;53.142;17.962;2023-08-21T08:39:03;101640.55;;;40.68;19.65
77019;BME280;66044;53.142;17.962;2023-08-21T08:41:41;101632.09;;;39.82;20.16
77019;BME280;66044;53.142;17.962;2023-08-21T08:44:12;101626.38;;;38.85;21.05
77019;BME280;66044;53.142;17.962;2023-08-21T08:46:39;101627.64;;;38.18;21.79
77019;BME280;66044;53.142;17.962;2023-08-21T08:49:06;101622.73;;;37.37;22.23
77019;BME280;66044;53.142;17.962;2023-08-21T08:51:34;101624.36;;;36.58;23.35
77019;BME280;66044;53.142;17.962;2023-08-21T08:54:01;101626.11;;;36.11;24.08
77019;BME280;66044;53.142;17.962;2023-08-21T08:56:28;101626.02;;;35.72;24.47
77019;BME280;66044;53.142;17.962;2023-08-21T08:58:54;101624.40;;;35.37;24.90
77019;BME280;66044;53.142;17.962;2023-08-21T09:01:21;101622.29;;;34.91;25.21
77019;BME280;66044;53.142;17.962;2023-08-21T09:03:47;101620.95;;;34.48;26.00
77019;BME280;66044;53.142;17.962;2023-08-21T09:06:16;101621.32;;;34.19;26.17
77019;BME280;66044;53.142;17.962;2023-08-21T09:08:54;101627.42;;;33.95;26.43
77019;BME280;66044;53.142;17.962;2023-08-21T09:11:22;101626.05;;;33.69;26.99
77019;BME280;66044;53.142;17.962;2023-08-21T09:13:50;101617.90;;;33.49;27.30
77019;BME280;66044;53.142;17.962;2023-08-21T09:16:18;101611.95;;;33.33;27.46
77019;BME280;66044;53.142;17.962;2023-08-21T09:18:55;101614.43;;;33.11;27.53
77019;BME280;66044;53.142;17.962;2023-08-21T09:21:26;101603.90;;;32.84;28.03
77019;BME280;66044;53.142;17.962;2023-08-21T09:23:59;101599.74;;;32.54;28.31
77019;BME280;66044;53.142;17.962;2023-08-21T09:26:27;101599.75;;;32.33;28.24
77019;BME280;66044;53.142;17.962;2023-08-21T09:28:58;101595.55;;;32.15;28.76
77019;BME280;66044;53.142;17.962;2023-08-21T09:31:32;101594.52;;;31.99;29.56
77019;BME280;66044;53.142;17.962;2023-08-21T09:34:02;101588.66;;;31.89;29.86
77019;BME280;66044;53.142;17.962;2023-08-21T09:36:32;101598.00;;;31.83;29.85
77019;BME280;66044;53.142;17.962;2023-08-21T09:38:58;101595.16;;;31.80;30.23
77019;BME280;66044;53.142;17.962;2023-08-21T09:41:25;101592.95;;;31.76;29.92
77019;BME280;66044;53.142;17.962;2023-08-21T09:43:53;101589.80;;;31.63;30.02
77019;BME280;66044;53.142;17.962;2023-08-21T09:46:25;101593.72;;;31.45;30.01
77019;BME280;66044;53.142;17.962;2023-08-21T09:48:52;101589.97;;;31.34;30.15
77019;BME280;66044;53.142;17.962;2023-08-21T09:51:20;101589.11;;;31.31;30.92
77019;BME280;66044;53.142;17.962;2023-08-21T09:53:51;101584.58;;;31.27;31.04
77019;BME280;66044;53.142;17.962;2023-08-21T09:56:21;101586.80;;;31.09;31.08
77019;BME280;66044;53.142;17.962;2023-08-21T09:58:48;101582.23;;;31.12;31.37
77019;BME280;66044;53.142;17.962;2023-08-21T10:01:16;101585.08;;;31.16;31.64
77019;BME280;66044;53.142;17.962;2023-08-21T10:03:43;101584.49;;;31.24;31.86
77019;BME280;66044;53.142;17.962;2023-08-21T10:06:17;101582.19;;;31.31;31.36
77019;BME280;66044;53.142;17.962;2023-08-21T10:08:48;101581.61;;;31.25;31.35
77019;BME280;66044;53.142;17.962;2023-08-21T10:11:18;101578.36;;;31.23;31.52
77019;BME280;66044;53.142;17.962;2023-08-21T10:13:46;101582.45;;;31.26;31.40
77019;BME280;66044;53.142;17.962;2023-08-21T10:16:13;101583.73;;;31.33;31.05
77019;BME280;66044;53.142;17.962;2023-08-21T10:18:44;101586.98;;;31.40;30.99
77019;BME280;66044;53.142;17.962;2023-08-21T10:21:17;101581.44;;;31.47;31.23
77019;BME280;66044;53.142;17.962;2023-08-21T10:23:48;101580.90;;;31.44;30.68
77019;BME280;66044;53.142;17.962;2023-08-21T10:26:18;101583.37;;;31.42;30.88
77019;BME280;66044;53.142;17.962;2023-08-21T10:28:52;101584.98;;;31.43;31.24
77019;BME280;66044;53.142;17.962;2023-08-21T10:31:33;101587.00;;;31.49;30.99
77019;BME280;66044;53.142;17.962;2023-08-21T10:34:03;101584.53;;;31.54;31.20
77019;BME280;66044;53.142;17.962;2023-08-21T10:39:14;101581.15;;;31.61;31.64
77019;BME280;66044;53.142;17.962;2023-08-21T10:42:02;101578.67;;;31.62;31.81
77019;BME280;66044;53.142;17.962;2023-08-21T10:47:16;101580.72;;;31.47;32.01
77019;BME280;66044;53.142;17.962;2023-08-21T10:50:07;101580.14;;;31.31;32.48
77019;BME280;66044;53.142;17.962;2023-08-21T10:52:38;101583.59;;;31.10;33.00
77019;BME280;66044;53.142;17.962;2023-08-21T10:55:09;101581.79;;;30.93;33.18
77019;BME280;66044;53.142;17.962;2023-08-21T10:57:36;101578.89;;;30.80;33.23
77019;BME280;66044;53.142;17.962;2023-08-21T11:00:05;101582.70;;;30.66;33.49
77019;BME280;66044;53.142;17.962;2023-08-21T11:02:36;101578.77;;;30.55;33.92
77019;BME280;66044;53.142;17.962;2023-08-21T11:05:04;101581.89;;;30.47;34.05
77019;BME280;66044;53.142;17.962;2023-08-21T11:07:45;101582.01;;;30.40;34.02
77019;BME280;66044;53.142;17.962;2023-08-21T11:10:14;101580.13;;;30.34;34.32
77019;BME280;66044;53.142;17.962;2023-08-21T11:12:53;101579.48;;;30.31;34.59
77019;BME280;66044;53.142;17.962;2023-08-21T11:15:21;101578.12;;;30.32;34.69
77019;BME280;66044;53.142;17.962;2023-08-21T11:17:54;101579.39;;;30.32;34.63
77019;BME280;66044;53.142;17.962;2023-08-21T11:20:21;101584.00;;;30.37;34.86
77019;BME280;66044;53.142;17.962;2023-08-21T11:22:48;101579.69;;;30.46;34.86
77019;BME280;66044;53.142;17.962;2023-08-21T11:25:15;101573.77;;;30.52;34.90
77019;BME280;66044;53.142;17.962;2023-08-21T11:27:44;101575.44;;;30.58;34.95
77019;BME280;66044;53.142;17.962;2023-08-21T11:30:11;101573.61;;;30.52;34.94
77019;BME280;66044;53.142;17.962;2023-08-21T11:32:39;101575.70;;;30.40;35.26
77019;BME280;66044;53.142;17.962;2023-08-21T11:35:05;101577.79;;;30.27;35.44
77019;BME280;66044;53.142;17.962;2023-08-21T11:37:32;101576.75;;;30.25;35.83
77019;BME280;66044;53.142;17.962;2023-08-21T11:39:58;101576.95;;;30.23;35.65
77019;BME280;66044;53.142;17.962;2023-08-21T11:42:29;101574.53;;;30.19;35.89
77019;BME280;66044;53.142;17.962;2023-08-21T11:44:58;101575.08;;;30.14;35.98
77019;BME280;66044;53.142;17.962;2023-08-21T11:47:33;101571.20;;;30.06;36.13
77019;BME280;66044;53.142;17.962;2023-08-21T11:50:04;101570.73;;;29.96;36.15
77019;BME280;66044;53.142;17.962;2023-08-21T11:52:32;101568.38;;;29.86;36.39
77019;BME280;66044;53.142;17.962;2023-08-21T11:54:59;101573.38;;;29.74;36.52
77019;BME280;66044;53.142;17.962;2023-08-21T11:57:25;101568.65;;;29.63;36.65
77019;BME280;66044;53.142;17.962;2023-08-21T11:59:55;101562.66;;;29.56;36.87
77019;BME280;66044;53.142;17.962;2023-08-21T12:02:23;101565.44;;;29.50;36.92
77019;BME280;66044;53.142;17.962;2023-08-21T12:05:14;101563.37;;;29.47;37.02
77019;BME280;66044;53.142;17.962;2023-08-21T12:07:40;101569.59;;;29.42;37.15
77019;BME280;66044;53.142;17.962;2023-08-21T12:10:07;101567.69;;;29.42;37.32
77019;BME280;66044;53.142;17.962;2023-08-21T12:12:34;101568.48;;;29.42;37.34
77019;BME280;66044;53.142;17.962;2023-08-21T12:15:00;101568.63;;;29.40;37.53
77019;BME280;66044;53.142;17.962;2023-08-21T12:17:27;101569.06;;;29.41;37.54
77019;BME280;66044;53.142;17.962;2023-08-21T12:19:53;101570.33;;;29.41;37.42
77019;BME280;66044;53.142;17.962;2023-08-21T12:22:19;101571.88;;;29.42;37.51
77019;BME280;66044;53.142;17.962;2023-08-21T12:24:46;101570.98;;;29.44;37.37
77019;BME280;66044;53.142;17.962;2023-08-21T12:27:12;101568.05;;;29.40;37.58
77019;BME280;66044;53.142;17.962;2023-08-21T12:29:39;101567.86;;;29.34;37.54
77019;BME280;66044;53.142;17.962;2023-08-21T12:32:05;101559.81;;;29.33;37.83
77019;BME280;66044;53.142;17.962;2023-08-21T12:34:32;101559.23;;;29.35;37.77
77019;BME280;66044;53.142;17.962;2023-08-21T12:36:58;101560.12;;;29.41;37.60
77019;BME280;66044;53.142;17.962;2023-08-21T12:39:25;101559.59;;;29.47;37.62
77019;BME280;66044;53.142;17.962;2023-08-21T12:41:51;101558.90;;;29.55;37.66
77019;BME280;66044;53.142;17.962;2023-08-21T12:44:18;101565.36;;;29.62;37.54
77019;BME280;66044;53.142;17.962;2023-08-21T12:46:44;101559.95;;;29.63;37.52
77019;BME280;66044;53.142;17.962;2023-08-21T12:49:11;101557.39;;;29.64;37.41
77019;BME280;66044;53.142;17.962;2023-08-21T12:51:37;101554.94;;;29.68;37.59